Time;durP1;ratioP1;P1;durP2;ratioP2;P2;SDS_P1;SDS_P2;PMS_P1;PMS_P2;Temp;Humidity;BMP_temperature;BMP_pressure;BME280_temperature;BME280_humidity;BME280_pressure;Samples;Min_cycle;Max_cycle;Signal;HPM_P1;HPM_P2
2022/08/26 00:01:33;;;;;;;3.25;2.72;;;;;;;16.43;100.00;90720.91;5012428;28;20061;-67
2022/08/26 00:04:00;;;;;;;10.32;3.03;;;;;;;16.40;100.00;90710.84;5012454;28;20065;-67
2022/08/26 00:06:25;;;;;;;5.97;2.72;;;;;;;16.39;100.00;90718.13;5012321;28;20398;-67
2022/08/26 00:08:51;;;;;;;5.20;2.95;;;;;;;16.45;100.00;90711.38;5012229;28;20535;-67
2022/08/26 00:11:17;;;;;;;6.75;3.30;;;;;;;16.44;100.00;90709.84;5012577;28;20450;-67
2022/08/26 00:13:42;;;;;;;3.70;2.55;;;;;;;16.46;100.00;90707.56;5012325;28;20433;-67
2022/08/26 00:16:09;;;;;;;9.57;3.30;;;;;;;16.47;100.00;90705.66;5012173;28;20034;-67
2022/08/26 00:18:36;;;;;;;5.07;2.65;;;;;;;16.46;100.00;90702.19;4994493;28;20084;-67
2022/08/26 00:21:01;;;;;;;3.58;2.65;;;;;;;16.48;100.00;90705.31;5012211;28;20034;-67
2022/08/26 00:23:27;;;;;;;6.18;2.83;;;;;;;16.48;100.00;90702.63;5012152;28;20474;-68
2022/08/26 00:25:53;;;;;;;4.70;2.53;;;;;;;16.49;100.00;90700.72;5012028;28;20037;-66
2022/08/26 00:28:19;;;;;;;3.13;2.45;;;;;;;16.52;100.00;90699.25;5011955;28;20025;-67
2022/08/26 00:30:48;;;;;;;7.90;2.53;;;;;;;16.46;100.00;90691.47;5012078;28;20072;-67
2022/08/26 00:33:15;;;;;;;4.18;2.58;;;;;;;16.55;100.00;90701.22;5011967;28;20022;-67
2022/08/26 00:35:41;;;;;;;4.20;2.58;;;;;;;16.55;100.00;90695.84;5011920;28;20030;-67
2022/08/26 00:38:07;;;;;;;2.88;2.30;;;;;;;16.52;100.00;90699.25;5011728;28;20128;-66
2022/08/26 00:40:44;;;;;;;4.57;2.60;;;;;;;16.52;100.00;90697.34;5011863;28;20097;-66
2022/08/26 00:43:10;;;;;;;5.07;3.17;;;;;;;16.52;100.00;90697.34;5011790;28;20045;-67
2022/08/26 00:45:49;;;;;;;5.95;3.03;;;;;;;16.53;100.00;90698.09;5011808;28;20049;-67
2022/08/26 00:48:18;;;;;;;5.55;2.13;;;;;;;16.53;100.00;90695.41;4993601;28;20154;-67
2022/08/26 00:51:24;;;;;;;3.40;2.85;;;;;;;16.54;100.00;90694.28;5011723;28;20033;-67
2022/08/26 00:53:57;;;;;;;7.20;3.50;;;;;;;16.56;100.00;90692.81;4991624;28;20049;-67
2022/08/26 00:56:33;;;;;;;3.65;2.60;;;;;;;16.61;100.00;90691.78;5011469;28;20034;-67
2022/08/26 00:59:03;;;;;;;3.22;2.38;;;;;;;16.63;100.00;90684.94;5011527;28;20036;-67
2022/08/26 01:01:29;;;;;;;3.67;2.65;;;;;;;16.66;100.00;90694.97;5011540;28;20229;-67
2022/08/26 01:03:55;;;;;;;3.88;2.75;;;;;;;16.69;100.00;90699.66;5011497;28;20125;-67
2022/08/26 01:06:22;;;;;;;2.63;2.40;;;;;;;16.65;100.00;90704.16;5011359;28;20100;-67
2022/08/26 01:08:47;;;;;;;8.55;2.65;;;;;;;16.66;100.00;90694.19;5011253;28;20030;-67
2022/08/26 01:11:15;;;;;;;3.95;2.40;;;;;;;16.59;100.00;90688.66;5011428;28;20484;-67
2022/08/26 01:13:41;;;;;;;5.28;2.85;;;;;;;16.59;100.00;90694.03;5010732;28;20026;-67
2022/08/26 01:16:11;;;;;;;3.65;2.40;;;;;;;16.57;100.00;90696.28;5011321;28;20100;-68
2022/08/26 01:18:39;;;;;;;3.13;2.50;;;;;;;16.51;100.00;90693.09;5011278;28;20017;-68
2022/08/26 01:21:34;;;;;;;5.47;2.80;;;;;;;16.53;100.00;90696.19;4993686;28;20393;-67
2022/08/26 01:24:00;;;;;;;3.33;2.45;;;;;;;16.46;100.00;90691.47;5011347;28;20080;-68
2022/08/26 01:26:32;;;;;;;3.58;2.38;;;;;;;16.44;100.00;90688.34;5011246;28;20060;-68
2022/08/26 01:29:00;;;;;;;3.13;2.33;;;;;;;16.43;100.00;90689.47;5011259;28;20029;-68
2022/08/26 01:31:30;;;;;;;9.25;2.63;;;;;;;16.41;100.00;90694.44;5011284;28;20034;-67
2022/08/26 01:34:11;;;;;;;7.30;3.00;;;;;;;16.37;100.00;90690.09;5011347;28;20033;-67
2022/08/26 01:36:38;;;;;;;6.78;2.97;;;;;;;16.37;100.00;90690.84;5011155;28;20045;-68
2022/08/26 01:39:04;;;;;;;7.55;3.92;;;;;;;16.26;100.00;90683.72;5011147;28;20029;-68
2022/08/26 01:41:31;;;;;;;4.50;2.40;;;;;;;16.33;100.00;90686.53;5011268;28;20059;-68
2022/08/26 01:43:58;;;;;;;5.90;2.45;;;;;;;16.34;100.00;90694.25;5011196;28;20030;-67
2022/08/26 01:46:26;;;;;;;2.80;2.35;;;;;;;16.32;100.00;90691.13;5011005;28;20104;-68
2022/08/26 01:48:53;;;;;;;9.25;2.97;;;;;;;16.31;100.00;90692.25;5011151;28;20026;-67
2022/08/26 01:51:20;;;;;;;3.10;1.92;;;;;;;16.32;100.00;90690.34;5011129;28;20033;-67
2022/08/26 01:53:46;;;;;;;4.13;2.72;;;;;;;16.28;100.00;90686.81;5011070;28;20142;-67
2022/08/26 01:56:13;;;;;;;4.85;3.45;;;;;;;16.27;100.00;90691.41;5010966;28;20034;-67
2022/08/26 01:58:45;;;;;;;8.85;2.95;;;;;;;16.23;100.00;90676.34;5010955;28;20522;-68
2022/08/26 02:01:12;;;;;;;5.20;2.90;;;;;;;16.28;100.00;90689.50;5010997;28;20427;-68
2022/08/26 02:03:56;;;;;;;5.05;2.55;;;;;;;16.19;100.00;90681.63;5011002;28;20108;-68
2022/08/26 02:06:22;;;;;;;2.92;2.63;;;;;;;16.20;100.00;90696.59;5010826;28;20026;-68
2022/08/26 02:08:51;;;;;;;3.67;2.67;;;;;;;16.15;100.00;90683.44;5010672;28;20504;-68
2022/08/26 02:11:17;;;;;;;5.90;3.47;;;;;;;16.17;100.00;90690.03;5010922;28;20153;-68
2022/08/26 02:13:50;;;;;;;9.32;3.40;;;;;;;16.13;100.00;90681.13;5010912;28;20050;-68
2022/08/26 02:16:19;;;;;;;5.18;2.95;;;;;;;16.12;100.00;90684.16;5010735;28;20030;-67
2022/08/26 02:18:46;;;;;;;3.25;2.30;;;;;;;16.13;100.00;90691.84;5010822;28;20134;-68
2022/08/26 02:21:12;;;;;;;7.63;2.38;;;;;;;16.08;100.00;90685.94;5010789;28;20040;-68
2022/08/26 02:23:38;;;;;;;7.07;3.05;;;;;;;15.96;100.00;90678.03;5010800;28;20178;-67
2022/08/26 02:26:16;;;;;;;3.15;2.80;;;;;;;16.02;100.00;90682.75;5011561;28;20037;-68
2022/08/26 02:28:56;;;;;;;3.45;2.33;;;;;;;15.98;100.00;90681.13;5014159;28;20026;-68
2022/08/26 02:31:23;;;;;;;5.95;3.22;;;;;;;16.01;100.00;90672.38;5014166;28;20149;-68
2022/08/26 02:33:48;;;;;;;4.75;2.25;;;;;;;15.90;100.00;90674.03;5014161;28;20061;-68
2022/08/26 02:36:24;;;;;;;7.47;2.50;;;;;;;15.90;100.00;90682.06;5014048;28;20069;-68
2022/08/26 02:38:50;;;;;;;3.72;2.25;;;;;;;15.87;100.00;90676.28;5013974;28;20026;-68
2022/08/26 02:41:16;;;;;;;6.63;2.55;;;;;;;15.82;100.00;90668.50;5014082;28;20157;-68
2022/08/26 02:43:42;;;;;;;3.17;2.30;;;;;;;15.87;100.00;90673.59;5014220;28;20058;-68
2022/08/26 02:46:08;;;;;;;9.15;3.00;;;;;;;15.84;100.00;90666.25;5013837;28;20092;-68
2022/08/26 02:48:33;;;;;;;2.78;2.58;;;;;;;15.81;100.00;90666.16;5013839;28;20026;-68
2022/08/26 02:51:00;;;;;;;3.15;2.25;;;;;;;15.74;100.00;90666.75;5014052;28;20045;-68
2022/08/26 02:53:26;;;;;;;7.40;2.40;;;;;;;15.67;100.00;90677.31;4996396;28;20021;-68
2022/08/26 02:55:52;;;;;;;5.60;3.25;;;;;;;15.59;100.00;90664.84;5013681;28;20034;-68
2022/08/26 02:58:17;;;;;;;4.05;2.25;;;;;;;15.59;100.00;90675.56;5013547;28;20033;-68
2022/08/26 03:00:43;;;;;;;4.88;2.35;;;;;;;15.58;100.00;90676.66;5013662;28;20057;-68
2022/08/26 03:03:09;;;;;;;4.72;2.47;;;;;;;15.55;100.00;90675.44;5013554;28;20737;-68
2022/08/26 03:05:34;;;;;;;3.72;3.00;;;;;;;15.56;100.00;90686.94;5013579;28;20045;-67
2022/08/26 03:08:00;;;;;;;5.72;2.95;;;;;;;15.52;100.00;90688.78;5013369;28;20030;-68
2022/08/26 03:10:27;;;;;;;5.03;2.22;;;;;;;15.57;100.00;90688.50;5013124;28;20220;-68
2022/08/26 03:12:53;;;;;;;4.63;2.60;;;;;;;15.57;100.00;90688.50;5013461;28;20044;-67
2022/08/26 03:15:18;;;;;;;6.40;2.80;;;;;;;15.55;100.00;90685.41;5013359;28;20038;-68
2022/08/26 03:17:46;;;;;;;8.27;2.92;;;;;;;15.56;100.00;90685.06;5013226;28;20432;-68
2022/08/26 03:20:12;;;;;;;5.35;2.92;;;;;;;15.50;100.00;90691.03;5013246;28;20048;-68
2022/08/26 03:22:38;;;;;;;6.53;2.65;;;;;;;15.50;100.00;90682.97;5013239;28;20124;-68
2022/08/26 03:25:07;;;;;;;2.92;2.70;;;;;;;15.52;100.00;90686.88;5013217;28;20805;-67
2022/08/26 03:27:33;;;;;;;2.60;2.15;;;;;;;15.53;100.00;90676.91;5012972;28;20046;-68
2022/08/26 03:32:43;;;;;;;3.00;2.40;;;;;;;15.62;100.00;90684.81;5013028;28;20053;-68
2022/08/26 03:35:10;;;;;;;3.42;2.08;;;;;;;15.59;100.00;90680.94;5012994;28;20430;-68
2022/08/26 03:37:36;;;;;;;3.58;2.65;;;;;;;15.61;100.00;90689.41;5012475;28;20539;-68
2022/08/26 03:40:03;;;;;;;2.33;2.13;;;;;;;15.66;100.00;90691.06;5012782;28;20042;-68
2022/08/26 03:42:28;;;;;;;13.40;2.90;;;;;;;15.74;100.00;90682.84;5012839;28;20092;-68
2022/08/26 03:44:54;;;;;;;5.72;3.30;;;;;;;15.75;100.00;90684.41;5012824;28;20049;-68
2022/08/26 03:47:19;;;;;;;12.02;5.90;;;;;;;15.78;100.00;90675.69;5012691;28;20046;-68
2022/08/26 03:49:45;;;;;;;17.88;8.68;;;;;;;15.83;100.00;90683.47;5012667;28;20455;-67
2022/08/26 03:52:10;;;;;;;34.05;12.98;;;;;;;15.82;100.00;90689.97;5012726;28;20062;-68
2022/08/26 03:54:36;;;;;;;14.30;8.00;;;;;;;15.82;100.00;90692.63;5012638;28;20049;-68
2022/08/26 03:57:02;;;;;;;15.20;6.97;;;;;;;15.85;100.00;90681.22;5012454;28;20033;-68
2022/08/26 03:59:27;;;;;;;14.32;6.53;;;;;;;15.79;100.00;90679.16;5012454;28;20044;-68
2022/08/26 04:01:53;;;;;;;14.45;7.03;;;;;;;15.68;100.00;90678.88;5012484;28;20504;-68
2022/08/26 04:04:19;;;;;;;15.02;7.18;;;;;;;15.38;100.00;90680.34;5012419;28;20042;-68
2022/08/26 04:06:44;;;;;;;7.15;4.65;;;;;;;15.27;100.00;90664.75;5012317;28;20515;-68
2022/08/26 04:09:18;;;;;;;4.53;2.40;;;;;;;15.24;100.00;90673.50;5012127;28;20504;-67
2022/08/26 04:11:46;;;;;;;3.53;2.80;;;;;;;15.15;100.00;90670.22;4995086;28;20053;-67
2022/08/26 04:14:15;;;;;;;4.18;2.80;;;;;;;15.12;100.00;90678.13;5012272;28;20042;-67
2022/08/26 04:16:42;;;;;;;7.05;3.33;;;;;;;15.16;100.00;90669.09;5012142;28;20423;-67
2022/08/26 04:19:12;;;;;;;5.70;3.53;;;;;;;15.21;100.00;90666.16;5007995;28;20038;-67
2022/08/26 04:21:38;;;;;;;5.53;2.53;;;;;;;15.19;100.00;90665.72;5011933;28;20041;-67
2022/08/26 04:24:05;;;;;;;4.78;2.80;;;;;;;15.15;100.00;90672.88;5011432;28;20125;-66
2022/08/26 04:26:38;;;;;;;5.72;2.25;;;;;;;15.05;100.00;90662.66;5011813;28;20069;-66
2022/08/26 04:29:07;;;;;;;10.68;2.22;;;;;;;15.03;100.00;90661.44;5011732;28;20046;-66
2022/08/26 04:31:34;;;;;;;4.35;2.08;;;;;;;15.00;100.00;90675.53;5011908;28;20084;-67
2022/08/26 04:34:00;;;;;;;13.02;7.55;;;;;;;15.07;100.00;90676.47;5011841;28;20038;-67
2022/08/26 04:36:25;;;;;;;3.63;3.00;;;;;;;15.17;100.00;90675.22;5011752;28;20042;-67
2022/08/26 04:38:51;;;;;;;3.72;2.50;;;;;;;15.29;100.00;90669.78;5011714;28;20408;-67
2022/08/26 04:41:18;;;;;;;3.85;2.15;;;;;;;15.32;100.00;90677.16;5011824;28;20038;-67
2022/08/26 04:43:45;;;;;;;3.58;2.42;;;;;;;15.38;100.00;90685.72;5011907;28;20465;-67
2022/08/26 04:46:15;;;;;;;10.95;2.60;;;;;;;15.51;100.00;90671.13;5011839;28;20045;-67
2022/08/26 04:48:41;;;;;;;14.38;3.03;;;;;;;15.61;100.00;90672.53;5011140;28;20482;-67
2022/08/26 04:51:07;;;;;;;3.47;2.20;;;;;;;15.65;100.00;90674.19;5011682;28;20037;-67
2022/08/26 04:53:32;;;;;;;5.65;2.72;;;;;;;15.83;100.00;90670.06;5011607;28;20095;-67
2022/08/26 04:55:58;;;;;;;4.18;2.38;;;;;;;16.10;100.00;90678.38;5011557;28;20046;-67
2022/08/26 04:58:24;;;;;;;7.20;2.97;;;;;;;16.60;100.00;90671.44;5011468;28;20491;-67
2022/08/26 05:00:52;;;;;;;2.88;2.40;;;;;;;16.70;100.00;90678.94;5011483;28;20040;-67
2022/08/26 05:03:18;;;;;;;9.20;3.10;;;;;;;16.67;100.00;90682.34;5011492;28;20037;-67
2022/08/26 05:05:45;;;;;;;2.63;2.00;;;;;;;16.90;100.00;90682.44;5011407;28;20524;-67
2022/08/26 05:08:12;;;;;;;4.07;3.05;;;;;;;17.08;100.00;90683.59;5011377;28;20049;-67
2022/08/26 05:10:44;;;;;;;3.70;2.42;;;;;;;17.33;100.00;90687.53;4993582;28;20034;-67
2022/08/26 05:13:11;;;;;;;3.00;2.10;;;;;;;18.68;100.00;90675.59;5011248;28;20057;-67
2022/08/26 05:15:36;;;;;;;6.45;3.05;;;;;;;18.81;100.00;90684.25;5011421;28;20128;-67
2022/08/26 05:18:04;;;;;;;2.65;2.05;;;;;;;18.48;100.00;90680.31;5011322;28;20128;-67
2022/08/26 05:20:31;;;;;;;3.00;2.70;;;;;;;18.33;100.00;90688.53;5011225;28;20049;-67
2022/08/26 05:22:59;;;;;;;8.23;2.70;;;;;;;18.32;100.00;90681.59;5011316;28;20495;-68
2022/08/26 05:25:26;;;;;;;7.18;2.20;;;;;;;18.12;100.00;90686.25;5011224;28;20439;-67
2022/08/26 05:27:52;;;;;;;5.32;2.55;;;;;;;17.95;100.00;90687.50;5011416;28;20049;-68
2022/08/26 05:30:18;;;;;;;4.25;2.30;;;;;;;18.19;100.00;90681.78;5011215;28;20038;-68
2022/08/26 05:32:45;;;;;;;5.53;2.95;;;;;;;17.86;100.00;90684.31;5011111;28;20038;-68
2022/08/26 05:35:11;;;;;;;3.00;2.50;;;;;;;17.72;100.00;90676.75;5011060;28;20042;-68
2022/08/26 05:37:37;;;;;;;3.63;2.65;;;;;;;17.85;100.00;90688.13;5010912;28;20037;-67
2022/08/26 05:40:04;;;;;;;10.18;2.88;;;;;;;18.18;100.00;90685.59;5010907;28;20044;-67
2022/08/26 05:42:32;;;;;;;6.93;2.88;;;;;;;18.70;100.00;90689.50;5010913;28;20046;-68
2022/08/26 05:44:57;;;;;;;9.05;2.58;;;;;;;19.15;100.00;90671.59;5010924;28;20045;-67
2022/08/26 05:47:23;;;;;;;3.10;2.53;;;;;;;19.48;100.00;90678.16;5010780;28;20439;-67
2022/08/26 05:49:49;;;;;;;7.20;2.90;;;;;;;19.43;100.00;90680.03;5010911;28;20092;-68
2022/08/26 05:52:14;;;;;;;4.90;3.13;;;;;;;19.20;100.00;90681.28;5010888;28;20551;-68
2022/08/26 05:54:40;;;;;;;3.75;2.50;;;;;;;19.10;100.00;90680.81;5010585;28;20558;-68
2022/08/26 05:57:05;;;;;;;2.78;2.50;;;;;;;19.12;100.00;90680.44;5010616;28;20122;-67
2022/08/26 05:59:31;;;;;;;7.45;3.20;;;;;;;20.28;100.00;90682.81;5010714;28;20065;-67
2022/08/26 06:01:56;;;;;;;4.82;3.65;;;;;;;22.85;92.95;90690.03;5014386;28;20504;-68
2022/08/26 06:04:24;;;;;;;4.03;3.13;;;;;;;22.58;83.83;90680.75;4996717;28;20042;-66
2022/08/26 06:06:50;;;;;;;8.98;3.55;;;;;;;22.34;86.82;90683.06;5014213;28;20535;-66
2022/08/26 06:09:16;;;;;;;6.40;2.70;;;;;;;21.83;88.59;90686.81;5014124;28;20041;-66
2022/08/26 06:11:41;;;;;;;7.38;2.97;;;;;;;22.55;83.53;90695.06;5014337;28;20038;-68
2022/08/26 06:14:07;;;;;;;3.67;2.53;;;;;;;23.85;72.85;90684.38;5014420;28;20120;-68
2022/08/26 06:16:37;;;;;;;4.68;2.95;;;;;;;23.35;72.25;90692.66;5014018;28;20070;-67
2022/08/26 06:19:04;;;;;;;5.30;2.75;;;;;;;22.41;76.42;90696.63;5013985;28;20099;-68
2022/08/26 06:21:33;;;;;;;6.07;2.80;;;;;;;22.11;82.51;90705.09;5014052;28;20041;-68
2022/08/26 06:26:51;;;;;;;4.10;2.58;;;;;;;22.29;82.12;90705.13;5013984;28;20206;-69
2022/08/26 06:29:21;;;;;;;3.78;2.83;;;;;;;22.66;80.13;90706.69;5014046;28;20499;-68
2022/08/26 06:31:47;;;;;;;5.82;2.75;;;;;;;22.21;82.36;90711.69;5014019;28;20041;-68
2022/08/26 06:34:13;;;;;;;4.57;2.85;;;;;;;22.49;81.21;90704.75;5013965;28;20033;-68
2022/08/26 06:36:41;;;;;;;8.25;3.55;;;;;;;22.83;80.03;90708.66;5013762;28;20038;-68
2022/08/26 06:39:08;;;;;;;9.65;2.80;;;;;;;23.28;78.54;90711.69;5012950;28;20535;-68
2022/08/26 06:41:35;;;;;;;3.97;2.85;;;;;;;26.87;64.85;90713.28;5013836;28;20038;-67
2022/08/26 06:44:03;;;;;;;16.65;3.83;;;;;;;28.95;54.87;90711.66;5013784;28;20044;-68
2022/08/26 06:46:29;;;;;;;7.93;3.25;;;;;;;28.48;53.81;90711.91;5013659;28;20034;-66
2022/08/26 06:48:57;;;;;;;8.52;3.17;;;;;;;27.67;54.57;90717.03;5013741;28;20037;-68
2022/08/26 06:51:29;;;;;;;4.90;3.17;;;;;;;26.36;56.77;90701.56;5013979;28;20042;-68
2022/08/26 06:53:58;;;;;;;11.93;3.95;;;;;;;25.93;58.83;90710.28;4995962;28;20508;-68
2022/08/26 06:56:27;;;;;;;8.85;3.75;;;;;;;25.79;58.74;90702.25;5013521;28;20041;-68
2022/08/26 06:58:53;;;;;;;4.75;3.63;;;;;;;25.24;60.35;90705.94;5013493;28;20030;-68
2022/08/26 07:01:20;;;;;;;9.50;4.55;;;;;;;24.96;61.32;90706.19;5013477;28;20488;-69
2022/08/26 07:03:47;;;;;;;4.30;2.97;;;;;;;24.54;60.74;90713.50;5013350;28;20049;-68
2022/08/26 07:06:13;;;;;;;6.45;3.05;;;;;;;24.58;60.06;90714.22;5013232;28;20065;-67
2022/08/26 07:08:38;;;;;;;6.97;2.83;;;;;;;25.55;61.64;90709.50;5013364;28;20116;-68
2022/08/26 07:11:07;;;;;;;5.07;2.70;;;;;;;29.65;53.18;90718.56;5013035;28;20041;-68
2022/08/26 07:13:36;;;;;;;7.18;2.72;;;;;;;32.01;43.72;90726.78;5012634;28;20116;-68
2022/08/26 07:16:03;;;;;;;4.70;2.10;;;;;;;33.06;40.95;90723.34;5013098;28;20044;-68
2022/08/26 07:18:29;;;;;;;5.97;2.55;;;;;;;31.99;42.87;90729.97;5013335;28;20457;-68
2022/08/26 07:20:54;;;;;;;5.43;2.80;;;;;;;28.77;47.22;90727.69;5013081;28;20579;-65
2022/08/26 07:23:20;;;;;;;6.18;2.10;;;;;;;27.90;49.03;90724.41;5013068;28;20036;-67
2022/08/26 07:25:45;;;;;;;2.88;2.17;;;;;;;27.06;49.84;90734.44;5018725;28;20037;-67
2022/08/26 07:28:11;;;;;;;4.75;2.40;;;;;;;28.73;47.96;90725.06;5032650;28;20044;-65
2022/08/26 07:30:39;;;;;;;5.25;2.42;;;;;;;29.63;44.48;90726.44;5032790;28;20116;-66
2022/08/26 07:33:06;;;;;;;3.15;2.38;;;;;;;30.87;45.69;90727.72;5032657;28;20030;-66
2022/08/26 07:35:31;;;;;;;6.07;2.53;;;;;;;32.98;40.14;90736.66;5032514;28;20030;-66
2022/08/26 07:37:57;;;;;;;6.75;2.20;;;;;;;35.90;35.92;90736.97;5032604;28;20460;-66
2022/08/26 07:40:24;;;;;;;5.35;2.40;;;;;;;38.22;33.86;90731.66;5032430;28;20038;-67
2022/08/26 07:42:50;;;;;;;4.00;2.53;;;;;;;39.52;33.12;90742.84;5032524;28;20037;-67
2022/08/26 07:45:15;;;;;;;6.32;2.63;;;;;;;39.36;31.32;90740.69;5032453;28;20044;-67
2022/08/26 07:47:41;;;;;;;5.82;2.30;;;;;;;39.66;30.56;90735.63;5032353;28;20034;-67
2022/08/26 07:50:07;;;;;;;3.72;2.40;;;;;;;38.14;32.00;90730.50;5032367;28;20041;-67
2022/08/26 07:52:33;;;;;;;5.05;2.60;;;;;;;37.12;33.47;90727.50;5032332;28;20060;-66
2022/08/26 07:55:01;;;;;;;7.40;2.55;;;;;;;35.87;35.02;90732.41;5032266;28;20837;-66
2022/08/26 07:57:27;;;;;;;7.68;2.80;;;;;;;35.34;34.39;90725.38;5032218;28;20470;-67
2022/08/26 07:59:54;;;;;;;3.85;2.35;;;;;;;36.02;35.13;90724.16;5032170;28;20030;-66
2022/08/26 08:02:19;;;;;;;5.40;1.98;;;;;;;36.72;33.32;90727.25;5032214;28;20592;-67
2022/08/26 08:04:45;;;;;;;3.47;1.95;;;;;;;38.62;31.12;90733.63;5032122;28;20037;-67
2022/08/26 08:07:10;;;;;;;7.75;3.00;;;;;;;36.94;33.26;90733.25;5032066;28;20048;-67
2022/08/26 08:09:36;;;;;;;4.82;2.33;;;;;;;35.36;34.06;90728.50;5031903;28;20041;-67
2022/08/26 08:12:03;;;;;;;3.72;2.00;;;;;;;36.70;33.02;90733.28;5031916;28;20498;-67
2022/08/26 08:14:28;;;;;;;4.22;2.72;;;;;;;34.49;36.15;90734.81;5031877;28;20049;-66
2022/08/26 08:16:53;;;;;;;4.20;2.25;;;;;;;35.36;34.81;90733.25;5031790;28;20033;-67
2022/08/26 08:19:19;;;;;;;4.88;2.08;;;;;;;34.52;35.34;90722.84;5031769;28;20044;-67
2022/08/26 08:21:45;;;;;;;6.65;2.83;;;;;;;36.03;33.54;90725.66;5031811;28;20037;-67
2022/08/26 08:24:11;;;;;;;3.50;2.35;;;;;;;38.41;31.93;90723.78;5031728;28;20038;-68
2022/08/26 08:26:37;;;;;;;2.72;2.05;;;;;;;37.84;31.46;90723.53;5032019;28;20079;-66
2022/08/26 08:29:03;;;;;;;7.68;2.58;;;;;;;39.42;29.90;90722.00;5031681;28;20072;-67
2022/08/26 08:31:31;;;;;;;5.35;2.05;;;;;;;36.92;32.00;90724.59;5031485;28;20037;-66
2022/08/26 08:33:56;;;;;;;6.15;3.95;;;;;;;35.38;33.57;90714.19;5031566;28;20038;-66
2022/08/26 08:36:22;;;;;;;4.28;2.10;;;;;;;35.52;34.09;90707.22;5031555;28;20040;-66
2022/08/26 08:38:48;;;;;;;5.40;2.67;;;;;;;33.96;36.63;90704.00;5031450;28;20057;-66
2022/08/26 08:41:47;;;;;;;5.03;2.05;;;;;;;36.26;32.78;90709.00;5031450;28;20048;-67
2022/08/26 08:44:18;;;;;;;3.35;1.95;;;;;;;35.02;33.42;90698.47;5031252;28;20041;-66
2022/08/26 08:46:49;;;;;;;4.28;2.10;;;;;;;36.47;32.96;90707.19;5013443;28;20119;-67
2022/08/26 08:49:15;;;;;;;4.35;2.85;;;;;;;37.34;31.56;90699.34;5031455;28;20033;-66
2022/08/26 08:52:00;;;;;;;4.75;2.10;;;;;;;37.36;30.75;90701.63;5031048;28;20030;-66
2022/08/26 08:54:25;;;;;;;4.15;2.10;;;;;;;39.07;29.69;90697.16;5031313;28;20037;-66
2022/08/26 08:57:09;;;;;;;3.35;2.33;;;;;;;37.83;31.27;90699.81;5031218;28;20117;-66
2022/08/26 08:59:46;;;;;;;4.68;2.42;;;;;;;39.78;30.04;90703.81;5031433;28;20075;-66
2022/08/26 09:02:31;;;;;;;5.03;2.65;;;;;;;39.65;28.89;90709.03;5031226;28;20109;-67
2022/08/26 09:05:03;;;;;;;3.20;2.95;;;;;;;40.12;29.35;90693.63;5031254;28;20045;-67
2022/08/26 09:07:43;;;;;;;8.10;2.70;;;;;;;41.33;27.89;90696.47;5031026;28;20503;-67
2022/08/26 09:10:36;;;;;;;4.68;2.97;;;;;;;42.34;26.83;90685.16;5030974;28;20049;-68
2022/08/26 09:13:14;;;;;;;4.90;2.35;;;;;;;40.50;27.51;90675.53;5031233;28;20029;-68
2022/08/26 09:16:07;;;;;;;7.25;3.72;;;;;;;39.46;28.52;90678.03;5030971;28;20037;-67
2022/08/26 09:18:55;;;;;;;6.70;2.70;;;;;;;40.33;28.28;90681.03;5030917;28;20442;-68
2022/08/26 09:21:23;;;;;;;3.30;2.42;;;;;;;38.37;29.71;90684.34;4994037;28;20045;-67
2022/08/26 09:23:49;;;;;;;6.32;2.65;;;;;;;38.60;29.17;90682.53;5031144;28;20083;-69
2022/08/26 09:26:20;;;;;;;5.20;2.72;;;;;;;40.42;27.49;90680.09;5030896;28;20476;-70
2022/08/26 09:28:52;;;;;;;7.05;3.53;;;;;;;39.28;29.21;90670.03;5030939;28;20080;-70
2022/08/26 09:31:23;;;;;;;6.15;3.22;;;;;;;38.52;30.17;90664.78;5031122;28;20456;-69
2022/08/26 09:34:05;;;;;;;5.55;3.03;;;;;;;37.06;29.82;90662.81;5030935;28;20033;-69
2022/08/26 09:36:41;;;;;;;5.85;4.35;;;;;;;39.07;28.99;90658.22;5016167;28;20590;-69
2022/08/26 09:39:26;;;;;;;6.78;2.97;;;;;;;39.01;27.04;90660.97;5017053;28;20181;-67
2022/08/26 09:42:03;;;;;;;3.42;2.70;;;;;;;39.59;26.50;90661.66;5034770;28;20120;-67
2022/08/26 09:44:30;;;;;;;4.32;2.72;;;;;;;39.71;26.14;90659.69;5034646;28;20034;-67
2022/08/26 09:47:05;;;;;;;5.18;2.83;;;;;;;39.99;26.26;90663.41;5034342;28;20049;-68
2022/08/26 09:49:34;;;;;;;3.95;2.67;;;;;;;37.97;27.80;90660.09;5034703;28;20041;-68
2022/08/26 09:52:12;;;;;;;4.90;3.03;;;;;;;38.21;27.35;90663.44;5034953;28;20050;-67
2022/08/26 09:54:38;;;;;;;4.15;2.92;;;;;;;39.15;26.29;90671.22;5034715;28;20041;-66
2022/08/26 09:57:16;;;;;;;4.25;3.05;;;;;;;38.03;27.72;90655.34;5034518;28;20041;-67
2022/08/26 09:59:41;;;;;;;8.80;2.88;;;;;;;39.87;27.24;90666.63;5034574;28;20109;-67
2022/08/26 10:02:16;;;;;;;6.30;3.38;;;;;;;37.21;27.36;90662.78;5034542;28;20478;-66
2022/08/26 10:04:51;;;;;;;4.05;3.20;;;;;;;33.38;32.22;90647.66;5034450;28;20030;-67
2022/08/26 10:07:33;;;;;;;5.80;3.03;;;;;;;32.76;33.75;90650.47;5034412;28;20037;-68
2022/08/26 10:10:02;;;;;;;5.82;3.47;;;;;;;33.37;32.32;90653.63;5034197;28;20049;-66
2022/08/26 10:12:31;;;;;;;6.82;3.17;;;;;;;34.56;31.65;90650.84;5034283;28;20500;-67
2022/08/26 10:15:02;;;;;;;4.88;3.65;;;;;;;36.24;29.93;90649.78;5034308;28;20034;-67
2022/08/26 10:17:34;;;;;;;5.47;3.95;;;;;;;35.26;28.51;90643.22;5016321;28;20128;-66
2022/08/26 10:20:04;;;;;;;6.45;3.60;;;;;;;35.59;28.67;90648.75;5034067;28;20043;-67
2022/08/26 10:22:48;;;;;;;5.55;4.15;;;;;;;34.86;29.50;90640.78;5034044;28;20179;-66
2022/08/26 10:25:23;;;;;;;6.50;4.32;;;;;;;36.35;29.26;90641.72;5016218;28;20133;-67
2022/08/26 10:28:18;;;;;;;6.68;4.05;;;;;;;35.92;28.98;90641.13;5033963;28;20415;-67
2022/08/26 10:30:54;;;;;;;4.65;3.80;;;;;;;36.91;25.95;90648.22;5033932;28;20052;-67
2022/08/26 10:33:21;;;;;;;5.30;4.38;;;;;;;36.54;27.19;90645.81;5033810;28;20037;-67
2022/08/26 10:35:54;;;;;;;7.55;4.53;;;;;;;37.34;28.04;90637.53;5033804;28;20040;-67
2022/08/26 10:38:30;;;;;;;9.27;4.80;;;;;;;37.10;27.21;90643.22;5033773;28;20116;-67
2022/08/26 10:41:13;;;;;;;5.55;4.00;;;;;;;38.22;26.78;90639.97;5033790;28;20030;-67
2022/08/26 10:43:44;;;;;;;4.55;3.58;;;;;;;38.06;27.66;90632.19;5033765;28;20117;-67
2022/08/26 10:46:15;;;;;;;7.75;4.03;;;;;;;39.12;25.57;90626.91;5033023;28;20069;-67
2022/08/26 10:48:50;;;;;;;4.70;3.55;;;;;;;37.96;26.28;90630.78;5033044;28;20048;-67
2022/08/26 10:51:26;;;;;;;8.18;4.13;;;;;;;39.97;26.05;90626.94;5033591;28;20517;-67
2022/08/26 10:53:55;;;;;;;11.57;4.85;;;;;;;40.28;25.33;90628.06;5033531;28;20033;-67
2022/08/26 10:56:51;;;;;;;5.88;4.40;;;;;;;37.79;26.38;90632.59;5033448;28;20060;-67
2022/08/26 10:59:50;;;;;;;9.20;4.43;;;;;;;38.47;25.70;90634.91;5033370;28;20041;-67
2022/08/26 11:02:39;;;;;;;6.78;4.35;;;;;;;39.44;24.62;90628.38;5033401;28;20033;-67
2022/08/26 11:05:18;;;;;;;9.93;4.82;;;;;;;39.67;25.29;90626.53;5033194;28;20046;-67
2022/08/26 11:07:53;;;;;;;9.13;4.60;;;;;;;39.07;24.96;90631.16;5033208;28;20415;-67
2022/08/26 11:10:18;;;;;;;7.93;5.05;;;;;;;38.49;26.04;90627.59;5033075;28;20100;-67
2022/08/26 11:12:44;;;;;;;6.70;4.50;;;;;;;38.32;26.84;90626.66;5033217;28;20037;-67
2022/08/26 11:15:12;;;;;;;8.80;4.57;;;;;;;38.76;26.21;90620.78;5033048;28;20299;-67
2022/08/26 11:17:43;;;;;;;5.75;4.65;;;;;;;38.64;25.72;90621.94;5033121;28;20100;-67
2022/08/26 11:20:34;;;;;;;6.13;3.90;;;;;;;38.32;26.27;90616.31;5033157;28;20037;-67
2022/08/26 11:23:11;;;;;;;4.63;3.80;;;;;;;38.32;26.48;90610.75;5032939;28;20111;-67
2022/08/26 11:25:57;;;;;;;4.82;3.92;;;;;;;38.16;26.22;90605.75;5032880;28;20117;-67
2022/08/26 11:28:44;;;;;;;12.68;4.45;;;;;;;37.59;25.94;90613.91;5032703;28;20125;-67
2022/08/26 11:31:32;;;;;;;7.75;4.57;;;;;;;38.50;24.62;90620.78;5032729;28;20038;-67
2022/08/26 11:33:59;;;;;;;7.90;4.07;;;;;;;37.99;25.88;90627.03;5031325;28;20041;-67
2022/08/26 11:36:46;;;;;;;9.85;4.25;;;;;;;36.66;26.93;90623.84;5032653;28;20092;-67
2022/08/26 11:39:29;;;;;;;12.15;3.83;;;;;;;36.16;27.18;90620.94;5032564;28;20034;-66
2022/08/26 11:42:00;;;;;;;6.07;4.35;;;;;;;37.15;27.53;90603.72;5032638;28;20044;-67
2022/08/26 11:44:36;;;;;;;4.75;3.88;;;;;;;37.04;26.76;90615.38;5032775;28;20044;-67
2022/08/26 11:47:04;;;;;;;4.30;3.42;;;;;;;37.32;25.78;90613.06;5014654;28;20430;-67